Kezdőlap
METAR-TAF:

METAR-TAF

Repülőterek :

Magnitogorsk, Oroszország

földrajzi szélesség: 53-23-36N, földrajzi hosszúság: 058-45-24E, magasság: 436 m

Jelenlegi meteorológiai megfigyelések

A jelentés 40 perccel ezelõtt készült, 04:30 UTC
Dél-délkeleti szél 10 kt
Hőmérséklet -7°C
Páratartalom 86%
Légköri nyomás 1007 hPa
Látótávolság 10 km, vagy több
Borult 2700 lábon

METAR: USCM 200430Z 15005MPS 9999 OVC027 M07/M09 Q1007 R18/090060 NOSIG RMK QFE718

Idő: 10:10 (05:10 UTC)

Előrejelzés

A jelentés 3 órával és 10 perccel ezelõtt készült, 02:00 UTC
Az előrejelzés 20-én 03 óra UTC és 20-én 12 óra UTC között érvényes
Déli szél 6 kt széllökések: 23 kt
Látótávolság: 5000 m
1100 lábon
Párásság
20-én 03 óra UTC és 20-én 12 óra UTC között ideiglenes
Látótávolság: 3100 m
Szakadozott felhőzet 1500 lábon, Cumulonimbus.
enyhe hózápor

TAF: USCM 200200Z 2003/2012 17003G12MPS 5000 BR VV011 TEMPO 2003/2012 3100 -SHSN BKN015CB

Meteorológiai megfigyelések és előrejelzések több, mint 4000 repülőtéren (METAR és TAF jelentéseket).

A térképen piros és sárga pontok jelzik az elérhető meteorológiai állomásokat.

Mozgassa az egeret a pont fölött, hogy megjelenjen az állomás neve.

Azután kattintson az időjárási megfigyelések és előrejelzések megtekintéséhez.

A térkép megváltoztatása: kattintson a fekete keresztel jelölt zöld gombra ráközelítéshez, a vonallal jelölt zöld gombra távolításhoz, vagy a zöld nyilakra a szomszédos térképek eléréséhez.


METAR-TAF: